sensor_id;sensor_type;location;lat;lon;timestamp;P1;durP1;ratioP1;P2;durP2;ratioP2
56171;SDS011;42052;41.634;-0.946;2023-04-30T00:00:18;3.50;;;1.42;;
56171;SDS011;42052;41.634;-0.946;2023-04-30T00:03:05;2.45;;;1.52;;
56171;SDS011;42052;41.634;-0.946;2023-04-30T00:05:51;2.95;;;1.30;;
56171;SDS011;42052;41.634;-0.946;2023-04-30T00:08:37;2.25;;;1.30;;
56171;SDS011;42052;41.634;-0.946;2023-04-30T00:11:23;3.35;;;1.15;;
56171;SDS011;42052;41.634;-0.946;2023-04-30T00:14:10;3.00;;;1.60;;
56171;SDS011;42052;41.634;-0.946;2023-04-30T00:16:56;2.08;;;1.13;;
56171;SDS011;42052;41.634;-0.946;2023-04-30T00:19:42;2.30;;;1.27;;
56171;SDS011;42052;41.634;-0.946;2023-04-30T00:22:28;3.78;;;1.50;;
56171;SDS011;42052;41.634;-0.946;2023-04-30T00:25:14;2.25;;;1.35;;
56171;SDS011;42052;41.634;-0.946;2023-04-30T00:28:01;2.30;;;1.17;;
56171;SDS011;42052;41.634;-0.946;2023-04-30T00:30:47;3.00;;;1.30;;
56171;SDS011;42052;41.634;-0.946;2023-04-30T00:33:33;1.65;;;1.17;;
56171;SDS011;42052;41.634;-0.946;2023-04-30T00:36:19;1.85;;;1.13;;
56171;SDS011;42052;41.634;-0.946;2023-04-30T00:39:05;1.88;;;1.10;;
56171;SDS011;42052;41.634;-0.946;2023-04-30T00:41:52;2.08;;;1.15;;
56171;SDS011;42052;41.634;-0.946;2023-04-30T00:44:38;1.98;;;1.30;;
56171;SDS011;42052;41.634;-0.946;2023-04-30T00:47:24;2.38;;;1.25;;
56171;SDS011;42052;41.634;-0.946;2023-04-30T00:50:10;1.67;;;1.10;;
56171;SDS011;42052;41.634;-0.946;2023-04-30T00:53:00;2.65;;;1.23;;
56171;SDS011;42052;41.634;-0.946;2023-04-30T00:55:46;2.63;;;1.10;;
56171;SDS011;42052;41.634;-0.946;2023-04-30T00:58:33;2.28;;;1.13;;
56171;SDS011;42052;41.634;-0.946;2023-04-30T01:01:19;2.25;;;1.20;;
56171;SDS011;42052;41.634;-0.946;2023-04-30T01:04:06;1.65;;;1.13;;
56171;SDS011;42052;41.634;-0.946;2023-04-30T01:06:52;1.83;;;1.10;;
56171;SDS011;42052;41.634;-0.946;2023-04-30T01:09:38;2.90;;;1.20;;
56171;SDS011;42052;41.634;-0.946;2023-04-30T01:21:04;2.47;;;0.93;;
56171;SDS011;42052;41.634;-0.946;2023-04-30T01:29:59;2.83;;;1.08;;
56171;SDS011;42052;41.634;-0.946;2023-04-30T01:32:48;2.20;;;0.82;;
56171;SDS011;42052;41.634;-0.946;2023-04-30T01:35:53;1.50;;;1.00;;
56171;SDS011;42052;41.634;-0.946;2023-04-30T01:39:10;1.77;;;1.00;;
56171;SDS011;42052;41.634;-0.946;2023-04-30T01:50:43;1.25;;;0.90;;
56171;SDS011;42052;41.634;-0.946;2023-04-30T01:53:39;1.42;;;0.82;;
56171;SDS011;42052;41.634;-0.946;2023-04-30T01:56:28;1.30;;;0.93;;
56171;SDS011;42052;41.634;-0.946;2023-04-30T01:59:17;1.10;;;0.80;;
56171;SDS011;42052;41.634;-0.946;2023-04-30T02:02:04;1.38;;;0.77;;
56171;SDS011;42052;41.634;-0.946;2023-04-30T02:04:51;1.02;;;0.80;;
56171;SDS011;42052;41.634;-0.946;2023-04-30T02:07:43;1.33;;;0.68;;
56171;SDS011;42052;41.634;-0.946;2023-04-30T02:10:32;1.65;;;0.90;;
56171;SDS011;42052;41.634;-0.946;2023-04-30T02:13:18;1.30;;;0.70;;
56171;SDS011;42052;41.634;-0.946;2023-04-30T02:16:04;1.65;;;0.75;;
56171;SDS011;42052;41.634;-0.946;2023-04-30T02:18:51;1.50;;;0.80;;
56171;SDS011;42052;41.634;-0.946;2023-04-30T02:21:37;1.30;;;0.70;;
56171;SDS011;42052;41.634;-0.946;2023-04-30T02:24:23;1.30;;;0.82;;
56171;SDS011;42052;41.634;-0.946;2023-04-30T02:27:09;1.52;;;0.77;;
56171;SDS011;42052;41.634;-0.946;2023-04-30T02:29:55;0.95;;;0.70;;
56171;SDS011;42052;41.634;-0.946;2023-04-30T02:32:41;1.13;;;0.70;;
56171;SDS011;42052;41.634;-0.946;2023-04-30T02:35:27;1.95;;;0.80;;
56171;SDS011;42052;41.634;-0.946;2023-04-30T02:38:13;1.48;;;0.90;;
56171;SDS011;42052;41.634;-0.946;2023-04-30T02:41:00;1.30;;;0.70;;
56171;SDS011;42052;41.634;-0.946;2023-04-30T02:43:46;1.35;;;0.70;;
56171;SDS011;42052;41.634;-0.946;2023-04-30T02:46:32;1.42;;;0.70;;
56171;SDS011;42052;41.634;-0.946;2023-04-30T02:49:18;1.95;;;0.90;;
56171;SDS011;42052;41.634;-0.946;2023-04-30T02:52:05;0.60;;;0.52;;
56171;SDS011;42052;41.634;-0.946;2023-04-30T02:54:53;1.45;;;0.70;;
56171;SDS011;42052;41.634;-0.946;2023-04-30T02:57:40;1.58;;;0.70;;
56171;SDS011;42052;41.634;-0.946;2023-04-30T03:00:26;1.27;;;0.70;;
56171;SDS011;42052;41.634;-0.946;2023-04-30T03:03:12;1.45;;;0.70;;
56171;SDS011;42052;41.634;-0.946;2023-04-30T03:05:58;0.85;;;0.63;;
56171;SDS011;42052;41.634;-0.946;2023-04-30T03:08:44;0.80;;;0.70;;
56171;SDS011;42052;41.634;-0.946;2023-04-30T03:11:30;0.77;;;0.60;;
56171;SDS011;42052;41.634;-0.946;2023-04-30T03:14:16;0.90;;;0.60;;
56171;SDS011;42052;41.634;-0.946;2023-04-30T03:17:03;0.88;;;0.60;;
56171;SDS011;42052;41.634;-0.946;2023-04-30T03:19:49;1.23;;;0.80;;
56171;SDS011;42052;41.634;-0.946;2023-04-30T03:22:35;0.95;;;0.50;;
56171;SDS011;42052;41.634;-0.946;2023-04-30T03:25:21;1.10;;;0.60;;
56171;SDS011;42052;41.634;-0.946;2023-04-30T03:28:07;0.95;;;0.70;;
56171;SDS011;42052;41.634;-0.946;2023-04-30T03:30:53;0.70;;;0.60;;
56171;SDS011;42052;41.634;-0.946;2023-04-30T03:33:40;1.13;;;0.77;;
56171;SDS011;42052;41.634;-0.946;2023-04-30T03:36:26;0.90;;;0.60;;
56171;SDS011;42052;41.634;-0.946;2023-04-30T03:39:13;0.77;;;0.50;;
56171;SDS011;42052;41.634;-0.946;2023-04-30T03:42:00;1.38;;;0.63;;
56171;SDS011;42052;41.634;-0.946;2023-04-30T03:44:47;0.73;;;0.50;;
56171;SDS011;42052;41.634;-0.946;2023-04-30T03:47:34;0.70;;;0.63;;
56171;SDS011;42052;41.634;-0.946;2023-04-30T03:50:21;0.73;;;0.50;;
56171;SDS011;42052;41.634;-0.946;2023-04-30T03:53:07;1.40;;;0.52;;
56171;SDS011;42052;41.634;-0.946;2023-04-30T03:55:53;1.15;;;0.50;;
56171;SDS011;42052;41.634;-0.946;2023-04-30T03:58:40;0.80;;;0.50;;
56171;SDS011;42052;41.634;-0.946;2023-04-30T04:01:26;1.23;;;0.50;;
56171;SDS011;42052;41.634;-0.946;2023-04-30T04:04:14;0.60;;;0.40;;
56171;SDS011;42052;41.634;-0.946;2023-04-30T04:07:00;0.75;;;0.57;;
56171;SDS011;42052;41.634;-0.946;2023-04-30T04:09:47;1.25;;;0.65;;
56171;SDS011;42052;41.634;-0.946;2023-04-30T04:12:33;0.95;;;0.63;;
56171;SDS011;42052;41.634;-0.946;2023-04-30T04:15:19;0.47;;;0.43;;
56171;SDS011;42052;41.634;-0.946;2023-04-30T04:18:06;0.90;;;0.50;;
56171;SDS011;42052;41.634;-0.946;2023-04-30T04:20:53;0.65;;;0.50;;
56171;SDS011;42052;41.634;-0.946;2023-04-30T04:23:40;0.73;;;0.43;;
56171;SDS011;42052;41.634;-0.946;2023-04-30T04:26:26;0.70;;;0.60;;
56171;SDS011;42052;41.634;-0.946;2023-04-30T04:29:13;0.70;;;0.50;;
56171;SDS011;42052;41.634;-0.946;2023-04-30T04:31:59;0.68;;;0.40;;
56171;SDS011;42052;41.634;-0.946;2023-04-30T04:34:47;0.82;;;0.50;;
56171;SDS011;42052;41.634;-0.946;2023-04-30T04:37:33;0.80;;;0.45;;
56171;SDS011;42052;41.634;-0.946;2023-04-30T04:40:19;0.82;;;0.40;;
56171;SDS011;42052;41.634;-0.946;2023-04-30T04:43:06;0.80;;;0.40;;
56171;SDS011;42052;41.634;-0.946;2023-04-30T04:45:52;0.40;;;0.40;;
56171;SDS011;42052;41.634;-0.946;2023-04-30T04:48:39;0.88;;;0.40;;
56171;SDS011;42052;41.634;-0.946;2023-04-30T04:51:25;1.65;;;0.40;;
56171;SDS011;42052;41.634;-0.946;2023-04-30T04:54:11;0.63;;;0.47;;
56171;SDS011;42052;41.634;-0.946;2023-04-30T04:56:57;0.63;;;0.40;;
56171;SDS011;42052;41.634;-0.946;2023-04-30T04:59:43;0.60;;;0.40;;
56171;SDS011;42052;41.634;-0.946;2023-04-30T05:02:29;0.60;;;0.40;;
56171;SDS011;42052;41.634;-0.946;2023-04-30T05:05:15;0.50;;;0.40;;
56171;SDS011;42052;41.634;-0.946;2023-04-30T05:08:02;1.10;;;0.47;;
56171;SDS011;42052;41.634;-0.946;2023-04-30T05:10:48;0.50;;;0.40;;
56171;SDS011;42052;41.634;-0.946;2023-04-30T05:13:34;0.50;;;0.38;;
56171;SDS011;42052;41.634;-0.946;2023-04-30T05:16:20;0.40;;;0.30;;
56171;SDS011;42052;41.634;-0.946;2023-04-30T05:19:06;0.65;;;0.50;;
56171;SDS011;42052;41.634;-0.946;2023-04-30T05:21:54;0.43;;;0.40;;
56171;SDS011;42052;41.634;-0.946;2023-04-30T05:24:40;0.50;;;0.38;;
56171;SDS011;42052;41.634;-0.946;2023-04-30T05:27:26;0.60;;;0.50;;
56171;SDS011;42052;41.634;-0.946;2023-04-30T05:30:12;0.60;;;0.40;;
56171;SDS011;42052;41.634;-0.946;2023-04-30T05:33:00;0.50;;;0.40;;
56171;SDS011;42052;41.634;-0.946;2023-04-30T05:35:46;0.93;;;0.40;;
56171;SDS011;42052;41.634;-0.946;2023-04-30T05:38:32;0.40;;;0.40;;
56171;SDS011;42052;41.634;-0.946;2023-04-30T05:41:18;1.17;;;0.47;;
56171;SDS011;42052;41.634;-0.946;2023-04-30T05:44:04;0.38;;;0.32;;
56171;SDS011;42052;41.634;-0.946;2023-04-30T05:46:50;0.60;;;0.38;;
56171;SDS011;42052;41.634;-0.946;2023-04-30T05:49:36;0.73;;;0.40;;
56171;SDS011;42052;41.634;-0.946;2023-04-30T05:52:23;0.55;;;0.50;;
56171;SDS011;42052;41.634;-0.946;2023-04-30T05:55:09;0.90;;;0.50;;
56171;SDS011;42052;41.634;-0.946;2023-04-30T05:57:55;0.52;;;0.40;;
56171;SDS011;42052;41.634;-0.946;2023-04-30T06:00:41;0.40;;;0.40;;
56171;SDS011;42052;41.634;-0.946;2023-04-30T06:03:28;0.40;;;0.32;;
56171;SDS011;42052;41.634;-0.946;2023-04-30T06:06:14;0.38;;;0.30;;
56171;SDS011;42052;41.634;-0.946;2023-04-30T06:09:00;0.35;;;0.30;;
56171;SDS011;42052;41.634;-0.946;2023-04-30T06:11:46;0.70;;;0.50;;
56171;SDS011;42052;41.634;-0.946;2023-04-30T06:14:34;0.45;;;0.30;;
56171;SDS011;42052;41.634;-0.946;2023-04-30T06:17:21;0.50;;;0.40;;
56171;SDS011;42052;41.634;-0.946;2023-04-30T06:20:07;0.45;;;0.32;;
56171;SDS011;42052;41.634;-0.946;2023-04-30T06:22:54;0.60;;;0.30;;
56171;SDS011;42052;41.634;-0.946;2023-04-30T06:25:40;0.30;;;0.30;;
56171;SDS011;42052;41.634;-0.946;2023-04-30T06:28:26;1.35;;;0.40;;
56171;SDS011;42052;41.634;-0.946;2023-04-30T06:31:12;1.77;;;0.50;;
56171;SDS011;42052;41.634;-0.946;2023-04-30T06:33:59;0.85;;;0.38;;
56171;SDS011;42052;41.634;-0.946;2023-04-30T06:36:45;0.57;;;0.40;;
56171;SDS011;42052;41.634;-0.946;2023-04-30T06:39:31;0.65;;;0.40;;
56171;SDS011;42052;41.634;-0.946;2023-04-30T06:42:17;0.70;;;0.50;;
56171;SDS011;42052;41.634;-0.946;2023-04-30T06:45:03;0.50;;;0.40;;
56171;SDS011;42052;41.634;-0.946;2023-04-30T06:47:53;0.30;;;0.30;;
56171;SDS011;42052;41.634;-0.946;2023-04-30T06:50:39;0.70;;;0.40;;
56171;SDS011;42052;41.634;-0.946;2023-04-30T06:53:29;0.43;;;0.30;;
56171;SDS011;42052;41.634;-0.946;2023-04-30T06:56:15;0.43;;;0.40;;
56171;SDS011;42052;41.634;-0.946;2023-04-30T06:59:01;0.95;;;0.40;;
56171;SDS011;42052;41.634;-0.946;2023-04-30T07:01:48;0.38;;;0.38;;
56171;SDS011;42052;41.634;-0.946;2023-04-30T07:04:34;1.08;;;0.40;;
56171;SDS011;42052;41.634;-0.946;2023-04-30T07:07:20;0.95;;;0.40;;
56171;SDS011;42052;41.634;-0.946;2023-04-30T07:10:07;0.38;;;0.30;;
56171;SDS011;42052;41.634;-0.946;2023-04-30T07:12:53;0.68;;;0.50;;
56171;SDS011;42052;41.634;-0.946;2023-04-30T07:15:40;0.40;;;0.40;;
56171;SDS011;42052;41.634;-0.946;2023-04-30T07:18:26;0.60;;;0.45;;
56171;SDS011;42052;41.634;-0.946;2023-04-30T07:21:12;1.05;;;0.40;;
56171;SDS011;42052;41.634;-0.946;2023-04-30T07:23:58;0.50;;;0.50;;
56171;SDS011;42052;41.634;-0.946;2023-04-30T07:26:45;0.85;;;0.50;;
56171;SDS011;42052;41.634;-0.946;2023-04-30T07:29:31;0.52;;;0.50;;
56171;SDS011;42052;41.634;-0.946;2023-04-30T07:32:17;0.40;;;0.40;;
56171;SDS011;42052;41.634;-0.946;2023-04-30T07:35:04;2.22;;;0.40;;
56171;SDS011;42052;41.634;-0.946;2023-04-30T07:37:51;0.90;;;0.35;;
56171;SDS011;42052;41.634;-0.946;2023-04-30T07:40:37;1.30;;;0.60;;
56171;SDS011;42052;41.634;-0.946;2023-04-30T07:43:23;0.40;;;0.40;;
56171;SDS011;42052;41.634;-0.946;2023-04-30T07:46:09;0.45;;;0.45;;
56171;SDS011;42052;41.634;-0.946;2023-04-30T07:48:55;1.50;;;0.60;;
56171;SDS011;42052;41.634;-0.946;2023-04-30T07:51:41;0.43;;;0.43;;
56171;SDS011;42052;41.634;-0.946;2023-04-30T07:54:27;0.50;;;0.50;;
56171;SDS011;42052;41.634;-0.946;2023-04-30T07:57:13;1.33;;;0.40;;
56171;SDS011;42052;41.634;-0.946;2023-04-30T08:00:00;1.95;;;0.60;;
56171;SDS011;42052;41.634;-0.946;2023-04-30T08:02:46;0.40;;;0.40;;
56171;SDS011;42052;41.634;-0.946;2023-04-30T08:05:32;0.80;;;0.50;;
56171;SDS011;42052;41.634;-0.946;2023-04-30T08:08:18;2.60;;;0.73;;
56171;SDS011;42052;41.634;-0.946;2023-04-30T08:11:05;0.57;;;0.43;;
56171;SDS011;42052;41.634;-0.946;2023-04-30T08:13:51;1.02;;;0.60;;
56171;SDS011;42052;41.634;-0.946;2023-04-30T08:16:37;0.60;;;0.50;;
56171;SDS011;42052;41.634;-0.946;2023-04-30T08:19:23;0.80;;;0.63;;
56171;SDS011;42052;41.634;-0.946;2023-04-30T08:22:09;0.68;;;0.52;;
56171;SDS011;42052;41.634;-0.946;2023-04-30T08:24:56;1.48;;;0.50;;
56171;SDS011;42052;41.634;-0.946;2023-04-30T08:27:42;1.55;;;0.50;;
56171;SDS011;42052;41.634;-0.946;2023-04-30T08:30:28;0.68;;;0.45;;
56171;SDS011;42052;41.634;-0.946;2023-04-30T08:33:14;0.80;;;0.68;;
56171;SDS011;42052;41.634;-0.946;2023-04-30T08:36:00;1.35;;;0.50;;
56171;SDS011;42052;41.634;-0.946;2023-04-30T08:38:47;0.82;;;0.60;;
56171;SDS011;42052;41.634;-0.946;2023-04-30T08:41:33;0.93;;;0.50;;
56171;SDS011;42052;41.634;-0.946;2023-04-30T08:44:23;1.02;;;0.63;;
56171;SDS011;42052;41.634;-0.946;2023-04-30T08:47:11;0.50;;;0.50;;
56171;SDS011;42052;41.634;-0.946;2023-04-30T08:49:58;0.50;;;0.50;;
56171;SDS011;42052;41.634;-0.946;2023-04-30T08:52:44;0.77;;;0.60;;
56171;SDS011;42052;41.634;-0.946;2023-04-30T08:55:30;1.77;;;0.55;;
56171;SDS011;42052;41.634;-0.946;2023-04-30T08:58:18;1.60;;;0.65;;
56171;SDS011;42052;41.634;-0.946;2023-04-30T09:01:05;1.30;;;0.50;;
56171;SDS011;42052;41.634;-0.946;2023-04-30T09:03:53;1.60;;;0.43;;
56171;SDS011;42052;41.634;-0.946;2023-04-30T09:06:39;0.52;;;0.47;;
56171;SDS011;42052;41.634;-0.946;2023-04-30T09:09:29;0.95;;;0.50;;
56171;SDS011;42052;41.634;-0.946;2023-04-30T09:12:21;0.98;;;0.60;;
56171;SDS011;42052;41.634;-0.946;2023-04-30T09:15:07;1.58;;;0.50;;
56171;SDS011;42052;41.634;-0.946;2023-04-30T09:21:01;2.35;;;0.80;;
56171;SDS011;42052;41.634;-0.946;2023-04-30T09:23:57;0.85;;;0.50;;
56171;SDS011;42052;41.634;-0.946;2023-04-30T09:26:46;0.73;;;0.60;;
56171;SDS011;42052;41.634;-0.946;2023-04-30T09:29:36;0.52;;;0.50;;
56171;SDS011;42052;41.634;-0.946;2023-04-30T09:32:22;0.82;;;0.40;;
56171;SDS011;42052;41.634;-0.946;2023-04-30T09:35:27;1.08;;;0.60;;
56171;SDS011;42052;41.634;-0.946;2023-04-30T09:38:27;0.60;;;0.50;;
56171;SDS011;42052;41.634;-0.946;2023-04-30T09:44:27;0.50;;;0.40;;
56171;SDS011;42052;41.634;-0.946;2023-04-30T09:47:21;0.30;;;0.30;;
56171;SDS011;42052;41.634;-0.946;2023-04-30T09:50:07;0.60;;;0.50;;
56171;SDS011;42052;41.634;-0.946;2023-04-30T09:53:04;0.57;;;0.47;;
56171;SDS011;42052;41.634;-0.946;2023-04-30T09:55:52;0.88;;;0.50;;
56171;SDS011;42052;41.634;-0.946;2023-04-30T09:58:38;0.63;;;0.52;;
56171;SDS011;42052;41.634;-0.946;2023-04-30T10:01:28;1.33;;;0.40;;
56171;SDS011;42052;41.634;-0.946;2023-04-30T10:04:15;1.02;;;0.43;;
56171;SDS011;42052;41.634;-0.946;2023-04-30T10:07:05;0.40;;;0.40;;
56171;SDS011;42052;41.634;-0.946;2023-04-30T10:12:49;0.95;;;0.50;;
56171;SDS011;42052;41.634;-0.946;2023-04-30T10:15:39;0.40;;;0.40;;
56171;SDS011;42052;41.634;-0.946;2023-04-30T10:18:32;1.98;;;0.50;;
56171;SDS011;42052;41.634;-0.946;2023-04-30T10:21:22;0.40;;;0.30;;
56171;SDS011;42052;41.634;-0.946;2023-04-30T10:24:14;0.82;;;0.50;;
56171;SDS011;42052;41.634;-0.946;2023-04-30T10:27:04;1.35;;;0.45;;
56171;SDS011;42052;41.634;-0.946;2023-04-30T10:29:51;0.85;;;0.55;;
56171;SDS011;42052;41.634;-0.946;2023-04-30T10:38:50;1.65;;;0.40;;
56171;SDS011;42052;41.634;-0.946;2023-04-30T10:41:37;0.90;;;0.52;;
56171;SDS011;42052;41.634;-0.946;2023-04-30T10:44:24;1.70;;;0.47;;
56171;SDS011;42052;41.634;-0.946;2023-04-30T10:47:11;1.83;;;0.40;;
56171;SDS011;42052;41.634;-0.946;2023-04-30T10:50:01;2.10;;;0.50;;
56171;SDS011;42052;41.634;-0.946;2023-04-30T10:52:58;0.50;;;0.32;;
56171;SDS011;42052;41.634;-0.946;2023-04-30T10:55:56;1.55;;;0.57;;
56171;SDS011;42052;41.634;-0.946;2023-04-30T10:58:43;0.95;;;0.40;;
56171;SDS011;42052;41.634;-0.946;2023-04-30T11:01:29;0.70;;;0.50;;
56171;SDS011;42052;41.634;-0.946;2023-04-30T11:04:15;1.63;;;0.50;;
56171;SDS011;42052;41.634;-0.946;2023-04-30T11:07:06;1.45;;;0.50;;
56171;SDS011;42052;41.634;-0.946;2023-04-30T11:09:55;1.98;;;0.50;;
56171;SDS011;42052;41.634;-0.946;2023-04-30T11:12:52;1.02;;;0.40;;
56171;SDS011;42052;41.634;-0.946;2023-04-30T11:15:40;3.28;;;0.70;;
56171;SDS011;42052;41.634;-0.946;2023-04-30T11:18:26;2.17;;;0.60;;
56171;SDS011;42052;41.634;-0.946;2023-04-30T11:21:12;1.38;;;0.55;;
56171;SDS011;42052;41.634;-0.946;2023-04-30T11:24:02;3.30;;;0.60;;
56171;SDS011;42052;41.634;-0.946;2023-04-30T11:27:04;0.80;;;0.40;;
56171;SDS011;42052;41.634;-0.946;2023-04-30T11:29:51;2.83;;;0.40;;
56171;SDS011;42052;41.634;-0.946;2023-04-30T11:32:38;2.65;;;0.55;;
56171;SDS011;42052;41.634;-0.946;2023-04-30T11:35:24;1.88;;;0.60;;
56171;SDS011;42052;41.634;-0.946;2023-04-30T11:38:12;1.75;;;0.52;;
56171;SDS011;42052;41.634;-0.946;2023-04-30T11:41:02;2.78;;;0.60;;
56171;SDS011;42052;41.634;-0.946;2023-04-30T11:43:49;2.90;;;0.50;;
56171;SDS011;42052;41.634;-0.946;2023-04-30T11:46:35;1.83;;;0.77;;
56171;SDS011;42052;41.634;-0.946;2023-04-30T11:49:21;2.58;;;0.52;;
56171;SDS011;42052;41.634;-0.946;2023-04-30T11:52:08;1.77;;;0.60;;
56171;SDS011;42052;41.634;-0.946;2023-04-30T11:54:54;6.88;;;0.80;;
56171;SDS011;42052;41.634;-0.946;2023-04-30T11:57:42;2.17;;;0.50;;
56171;SDS011;42052;41.634;-0.946;2023-04-30T12:00:30;2.92;;;0.70;;
56171;SDS011;42052;41.634;-0.946;2023-04-30T12:03:16;2.67;;;0.50;;
56171;SDS011;42052;41.634;-0.946;2023-04-30T12:06:02;4.15;;;0.60;;
56171;SDS011;42052;41.634;-0.946;2023-04-30T12:08:48;2.10;;;0.57;;
56171;SDS011;42052;41.634;-0.946;2023-04-30T12:11:36;4.90;;;0.60;;
56171;SDS011;42052;41.634;-0.946;2023-04-30T12:14:23;4.90;;;0.50;;
56171;SDS011;42052;41.634;-0.946;2023-04-30T12:17:09;5.63;;;0.80;;
56171;SDS011;42052;41.634;-0.946;2023-04-30T12:19:56;2.25;;;0.60;;
56171;SDS011;42052;41.634;-0.946;2023-04-30T12:22:42;1.55;;;0.50;;
56171;SDS011;42052;41.634;-0.946;2023-04-30T12:25:29;3.42;;;0.75;;
56171;SDS011;42052;41.634;-0.946;2023-04-30T12:28:15;3.08;;;0.70;;
56171;SDS011;42052;41.634;-0.946;2023-04-30T12:31:01;2.25;;;0.50;;
56171;SDS011;42052;41.634;-0.946;2023-04-30T12:33:53;2.10;;;0.50;;
56171;SDS011;42052;41.634;-0.946;2023-04-30T12:36:41;3.45;;;0.70;;
56171;SDS011;42052;41.634;-0.946;2023-04-30T12:39:31;2.08;;;0.60;;
56171;SDS011;42052;41.634;-0.946;2023-04-30T12:42:18;2.42;;;0.63;;
56171;SDS011;42052;41.634;-0.946;2023-04-30T12:45:05;2.97;;;0.70;;
56171;SDS011;42052;41.634;-0.946;2023-04-30T12:47:52;3.80;;;0.60;;
56171;SDS011;42052;41.634;-0.946;2023-04-30T12:50:38;2.95;;;0.70;;
56171;SDS011;42052;41.634;-0.946;2023-04-30T12:53:24;3.33;;;0.70;;
56171;SDS011;42052;41.634;-0.946;2023-04-30T12:58:59;2.85;;;0.63;;
56171;SDS011;42052;41.634;-0.946;2023-04-30T13:01:45;3.28;;;0.70;;
56171;SDS011;42052;41.634;-0.946;2023-04-30T13:04:31;3.47;;;0.90;;
56171;SDS011;42052;41.634;-0.946;2023-04-30T13:07:18;2.40;;;0.50;;
56171;SDS011;42052;41.634;-0.946;2023-04-30T13:10:05;0.93;;;0.50;;
56171;SDS011;42052;41.634;-0.946;2023-04-30T13:12:52;2.40;;;0.70;;
56171;SDS011;42052;41.634;-0.946;2023-04-30T13:15:38;4.72;;;0.70;;
56171;SDS011;42052;41.634;-0.946;2023-04-30T13:18:25;2.13;;;0.68;;
56171;SDS011;42052;41.634;-0.946;2023-04-30T13:21:11;3.03;;;0.63;;
56171;SDS011;42052;41.634;-0.946;2023-04-30T13:23:57;2.53;;;0.82;;
56171;SDS011;42052;41.634;-0.946;2023-04-30T13:26:43;5.72;;;0.95;;
56171;SDS011;42052;41.634;-0.946;2023-04-30T13:29:29;2.97;;;0.80;;
56171;SDS011;42052;41.634;-0.946;2023-04-30T13:32:16;2.58;;;0.98;;
56171;SDS011;42052;41.634;-0.946;2023-04-30T13:35:02;7.18;;;1.00;;
56171;SDS011;42052;41.634;-0.946;2023-04-30T13:37:49;3.90;;;0.93;;
56171;SDS011;42052;41.634;-0.946;2023-04-30T13:40:36;4.50;;;1.00;;
56171;SDS011;42052;41.634;-0.946;2023-04-30T13:43:22;4.57;;;1.10;;
56171;SDS011;42052;41.634;-0.946;2023-04-30T13:46:09;2.45;;;0.80;;
56171;SDS011;42052;41.634;-0.946;2023-04-30T13:48:55;3.83;;;1.05;;
56171;SDS011;42052;41.634;-0.946;2023-04-30T13:51:41;3.50;;;0.70;;
56171;SDS011;42052;41.634;-0.946;2023-04-30T13:54:27;3.20;;;0.90;;
56171;SDS011;42052;41.634;-0.946;2023-04-30T13:57:13;2.58;;;0.75;;
56171;SDS011;42052;41.634;-0.946;2023-04-30T14:00:00;3.72;;;0.80;;
56171;SDS011;42052;41.634;-0.946;2023-04-30T14:02:46;2.33;;;0.80;;
56171;SDS011;42052;41.634;-0.946;2023-04-30T14:05:32;2.40;;;1.00;;
56171;SDS011;42052;41.634;-0.946;2023-04-30T14:08:19;3.08;;;0.93;;
56171;SDS011;42052;41.634;-0.946;2023-04-30T14:11:05;2.95;;;0.90;;
56171;SDS011;42052;41.634;-0.946;2023-04-30T14:13:51;2.78;;;0.70;;
56171;SDS011;42052;41.634;-0.946;2023-04-30T14:16:38;4.85;;;1.00;;
56171;SDS011;42052;41.634;-0.946;2023-04-30T14:19:24;4.25;;;1.02;;
56171;SDS011;42052;41.634;-0.946;2023-04-30T14:22:11;1.45;;;0.80;;
56171;SDS011;42052;41.634;-0.946;2023-04-30T14:24:57;2.83;;;1.00;;
56171;SDS011;42052;41.634;-0.946;2023-04-30T14:27:43;2.13;;;0.80;;
56171;SDS011;42052;41.634;-0.946;2023-04-30T14:30:30;2.28;;;0.93;;
56171;SDS011;42052;41.634;-0.946;2023-04-30T14:33:16;3.05;;;0.73;;
56171;SDS011;42052;41.634;-0.946;2023-04-30T14:36:02;2.78;;;0.80;;
56171;SDS011;42052;41.634;-0.946;2023-04-30T14:38:49;3.80;;;0.95;;
56171;SDS011;42052;41.634;-0.946;2023-04-30T14:41:35;2.80;;;0.85;;
56171;SDS011;42052;41.634;-0.946;2023-04-30T14:44:22;2.00;;;0.80;;
56171;SDS011;42052;41.634;-0.946;2023-04-30T14:47:11;2.03;;;0.77;;
56171;SDS011;42052;41.634;-0.946;2023-04-30T14:49:57;1.90;;;0.80;;
56171;SDS011;42052;41.634;-0.946;2023-04-30T14:52:46;4.45;;;0.93;;
56171;SDS011;42052;41.634;-0.946;2023-04-30T14:55:32;1.77;;;0.60;;
56171;SDS011;42052;41.634;-0.946;2023-04-30T14:58:18;3.03;;;0.70;;
56171;SDS011;42052;41.634;-0.946;2023-04-30T15:01:05;2.72;;;0.73;;
56171;SDS011;42052;41.634;-0.946;2023-04-30T15:03:51;2.20;;;0.90;;
56171;SDS011;42052;41.634;-0.946;2023-04-30T15:06:37;1.77;;;0.63;;
56171;SDS011;42052;41.634;-0.946;2023-04-30T15:09:23;1.33;;;0.80;;
56171;SDS011;42052;41.634;-0.946;2023-04-30T15:12:09;4.18;;;1.00;;
56171;SDS011;42052;41.634;-0.946;2023-04-30T15:14:56;2.55;;;0.82;;
56171;SDS011;42052;41.634;-0.946;2023-04-30T15:17:42;3.40;;;0.82;;
56171;SDS011;42052;41.634;-0.946;2023-04-30T15:20:28;2.42;;;0.77;;
56171;SDS011;42052;41.634;-0.946;2023-04-30T15:23:14;3.15;;;0.95;;
56171;SDS011;42052;41.634;-0.946;2023-04-30T15:26:01;1.10;;;0.60;;
56171;SDS011;42052;41.634;-0.946;2023-04-30T15:28:48;3.35;;;0.80;;
56171;SDS011;42052;41.634;-0.946;2023-04-30T15:31:34;3.63;;;0.90;;
56171;SDS011;42052;41.634;-0.946;2023-04-30T15:34:20;3.42;;;0.90;;
56171;SDS011;42052;41.634;-0.946;2023-04-30T15:37:07;3.55;;;0.90;;
56171;SDS011;42052;41.634;-0.946;2023-04-30T15:39:53;3.20;;;0.80;;
56171;SDS011;42052;41.634;-0.946;2023-04-30T15:42:39;3.17;;;0.90;;
56171;SDS011;42052;41.634;-0.946;2023-04-30T15:45:26;3.80;;;1.00;;
56171;SDS011;42052;41.634;-0.946;2023-04-30T15:48:13;2.63;;;0.70;;
56171;SDS011;42052;41.634;-0.946;2023-04-30T15:51:00;2.30;;;0.70;;
56171;SDS011;42052;41.634;-0.946;2023-04-30T15:53:46;3.28;;;0.73;;
56171;SDS011;42052;41.634;-0.946;2023-04-30T15:56:33;2.83;;;0.80;;
56171;SDS011;42052;41.634;-0.946;2023-04-30T15:59:20;3.60;;;0.90;;
56171;SDS011;42052;41.634;-0.946;2023-04-30T16:02:07;3.50;;;0.80;;
56171;SDS011;42052;41.634;-0.946;2023-04-30T16:04:53;4.72;;;0.77;;
56171;SDS011;42052;41.634;-0.946;2023-04-30T16:07:39;2.67;;;0.90;;
56171;SDS011;42052;41.634;-0.946;2023-04-30T16:10:25;4.32;;;0.90;;
56171;SDS011;42052;41.634;-0.946;2023-04-30T16:13:12;3.63;;;0.90;;
56171;SDS011;42052;41.634;-0.946;2023-04-30T16:15:58;5.20;;;0.80;;
56171;SDS011;42052;41.634;-0.946;2023-04-30T16:18:44;5.22;;;0.98;;
56171;SDS011;42052;41.634;-0.946;2023-04-30T16:21:30;2.97;;;0.73;;
56171;SDS011;42052;41.634;-0.946;2023-04-30T16:24:17;4.90;;;0.82;;
56171;SDS011;42052;41.634;-0.946;2023-04-30T16:27:03;3.72;;;0.90;;
56171;SDS011;42052;41.634;-0.946;2023-04-30T16:29:49;2.08;;;0.73;;
56171;SDS011;42052;41.634;-0.946;2023-04-30T16:32:35;2.50;;;0.80;;
56171;SDS011;42052;41.634;-0.946;2023-04-30T16:35:21;2.67;;;0.77;;
56171;SDS011;42052;41.634;-0.946;2023-04-30T16:38:07;2.40;;;0.65;;
56171;SDS011;42052;41.634;-0.946;2023-04-30T16:40:54;1.67;;;0.70;;
56171;SDS011;42052;41.634;-0.946;2023-04-30T16:43:40;4.30;;;0.90;;
56171;SDS011;42052;41.634;-0.946;2023-04-30T16:46:27;3.72;;;0.90;;
56171;SDS011;42052;41.634;-0.946;2023-04-30T16:49:14;2.20;;;0.70;;
56171;SDS011;42052;41.634;-0.946;2023-04-30T16:52:01;2.35;;;0.70;;
56171;SDS011;42052;41.634;-0.946;2023-04-30T16:54:47;2.58;;;0.70;;
56171;SDS011;42052;41.634;-0.946;2023-04-30T16:57:34;3.35;;;0.70;;
56171;SDS011;42052;41.634;-0.946;2023-04-30T17:00:20;3.42;;;0.70;;
56171;SDS011;42052;41.634;-0.946;2023-04-30T17:03:06;2.35;;;0.60;;
56171;SDS011;42052;41.634;-0.946;2023-04-30T17:05:52;1.50;;;0.57;;
56171;SDS011;42052;41.634;-0.946;2023-04-30T17:08:38;3.08;;;0.80;;
56171;SDS011;42052;41.634;-0.946;2023-04-30T17:11:24;1.90;;;0.60;;